createdAt,value
2023-02-16T00:00:35.576Z,15.24
2023-02-16T00:01:35.594Z,15.22
2023-02-16T00:02:35.659Z,15.23
2023-02-16T00:03:35.668Z,15.23
2023-02-16T00:04:35.545Z,15.21
2023-02-16T00:05:35.538Z,15.21
2023-02-16T00:06:35.546Z,15.21
2023-02-16T00:07:35.516Z,15.21
2023-02-16T00:08:35.529Z,15.24
2023-02-16T00:11:35.512Z,15.20
2023-02-16T00:12:35.510Z,15.20
2023-02-16T00:13:35.516Z,15.20
2023-02-16T00:14:35.498Z,15.19
2023-02-16T00:15:35.512Z,15.20
2023-02-16T00:16:35.473Z,15.18
2023-02-16T00:17:35.479Z,15.18
2023-02-16T00:18:35.455Z,15.18
2023-02-16T00:19:35.455Z,15.18
2023-02-16T00:20:35.446Z,15.17
2023-02-16T00:21:35.452Z,15.18
2023-02-16T00:22:35.449Z,15.18
2023-02-16T00:23:35.438Z,15.18
2023-02-16T00:24:36.384Z,15.19
2023-02-16T00:25:35.425Z,15.18
2023-02-16T00:26:35.398Z,15.18
2023-02-16T00:27:35.410Z,15.19
2023-02-16T00:28:35.417Z,15.19
2023-02-16T00:29:35.389Z,15.20
2023-02-16T00:30:35.506Z,15.20
2023-02-16T00:31:35.493Z,15.20
2023-02-16T00:32:35.371Z,15.21
2023-02-16T00:33:35.362Z,15.22
2023-02-16T00:34:35.398Z,15.20
2023-02-16T00:35:35.451Z,15.19
2023-02-16T00:36:35.351Z,15.21
2023-02-16T00:37:35.346Z,15.19
2023-02-16T00:38:35.320Z,15.21
2023-02-16T00:39:35.339Z,15.19
2023-02-16T00:40:35.369Z,15.20
2023-02-16T00:41:35.322Z,15.19
2023-02-16T00:42:35.297Z,15.20
2023-02-16T00:43:35.306Z,15.21
2023-02-16T00:55:35.210Z,15.18
2023-02-16T00:56:35.217Z,15.19
2023-02-16T00:57:35.243Z,15.18
2023-02-16T00:58:35.212Z,15.19
2023-02-16T00:59:35.189Z,15.18
2023-02-16T01:00:35.198Z,15.19
2023-02-16T01:01:35.226Z,15.19
2023-02-16T01:02:35.199Z,15.18
2023-02-16T01:03:35.141Z,15.19
2023-02-16T01:04:35.188Z,15.17
2023-02-16T01:05:35.199Z,15.17
2023-02-16T01:06:35.244Z,15.17
2023-02-16T01:07:35.240Z,15.16
2023-02-16T01:08:35.291Z,15.17
2023-02-16T01:09:35.295Z,15.15
2023-02-16T01:10:35.351Z,15.14
2023-02-16T01:11:35.375Z,15.15
2023-02-16T01:12:35.422Z,15.14
2023-02-16T01:13:35.462Z,15.14
2023-02-16T01:14:35.454Z,15.14
2023-02-16T01:15:35.558Z,15.14
2023-02-16T01:16:35.556Z,15.14
2023-02-16T01:17:35.573Z,15.14
2023-02-16T01:18:35.629Z,15.14
2023-02-16T01:19:35.626Z,15.13
2023-02-16T01:20:35.681Z,15.12
2023-02-16T01:21:35.718Z,15.13
2023-02-16T01:22:35.728Z,15.13
2023-02-16T01:23:35.766Z,15.13
2023-02-16T01:24:35.813Z,15.13
2023-02-16T01:25:35.848Z,15.12
2023-02-16T01:26:35.890Z,15.14
2023-02-16T01:27:35.908Z,15.12
2023-02-16T01:28:35.895Z,15.14
2023-02-16T01:29:35.973Z,15.13
2023-02-16T01:30:35.997Z,15.12
2023-02-16T01:31:36.175Z,15.12
2023-02-16T01:32:36.059Z,15.14
2023-02-16T01:33:36.067Z,15.12
2023-02-16T01:34:36.112Z,15.12
2023-02-16T01:36:36.145Z,15.13
2023-02-16T01:37:36.207Z,15.13
2023-02-16T01:38:36.237Z,15.14
2023-02-16T04:00:11.385Z,14.84
2023-02-16T04:01:11.364Z,14.84
2023-02-16T04:02:11.395Z,14.84
2023-02-16T04:03:11.363Z,14.84
2023-02-16T04:04:11.380Z,14.83
2023-02-16T04:05:11.381Z,14.83
2023-02-16T04:06:11.345Z,14.83
2023-02-16T04:07:11.325Z,14.83
2023-02-16T04:08:11.308Z,14.82
2023-02-16T04:09:11.300Z,14.82
2023-02-16T04:10:11.291Z,14.82
2023-02-16T04:11:11.305Z,14.81
2023-02-16T04:12:11.297Z,14.82
2023-02-16T04:13:11.277Z,14.81
2023-02-16T04:14:11.300Z,14.81
2023-02-16T04:15:11.308Z,14.81
2023-02-16T04:16:11.240Z,14.82
2023-02-16T04:17:11.275Z,14.82
2023-02-16T04:18:11.248Z,14.81
2023-02-16T04:19:11.299Z,14.81
2023-02-16T04:20:11.225Z,14.81
2023-02-16T04:21:11.245Z,14.83
2023-02-16T04:22:11.217Z,14.82
2023-02-16T04:23:11.242Z,14.81
2023-02-16T04:24:11.186Z,14.82
2023-02-16T04:25:11.187Z,14.82
2023-02-16T04:26:11.187Z,14.80
2023-02-16T04:27:11.180Z,14.82
2023-02-16T04:28:11.188Z,14.82
2023-02-16T04:29:11.188Z,14.82
2023-02-16T04:30:11.224Z,14.81
2023-02-16T04:31:11.296Z,14.82
2023-02-16T04:32:11.360Z,14.81
2023-02-16T04:33:11.160Z,14.83
2023-02-16T04:34:11.134Z,14.83
2023-02-16T04:35:11.135Z,14.81
2023-02-16T04:36:11.138Z,14.81
2023-02-16T04:37:11.128Z,14.81
2023-02-16T04:38:11.106Z,14.81
2023-02-16T04:39:11.082Z,14.81
2023-02-16T04:40:11.089Z,14.80
2023-02-16T04:41:11.109Z,14.79
2023-02-16T04:42:11.074Z,14.80
2023-02-16T04:43:11.052Z,14.81
2023-02-16T04:44:11.033Z,14.80
2023-02-16T04:45:11.074Z,14.80
2023-02-16T04:46:11.081Z,14.78
2023-02-16T04:47:11.078Z,14.78
2023-02-16T04:48:11.047Z,14.78
2023-02-16T04:49:11.061Z,14.78
2023-02-16T04:50:11.039Z,14.78
2023-02-16T04:51:11.039Z,14.78
2023-02-16T04:52:10.983Z,14.77
2023-02-16T04:53:10.994Z,14.75
2023-02-16T04:54:11.005Z,14.79
2023-02-16T04:55:11.222Z,14.78
2023-02-16T04:56:10.967Z,14.78
2023-02-16T04:57:10.963Z,14.78
2023-02-16T04:58:10.979Z,14.77
2023-02-16T04:59:10.949Z,14.77
2023-02-16T05:00:10.952Z,14.78
2023-02-16T05:01:10.960Z,14.76
2023-02-16T05:02:10.954Z,14.77
2023-02-16T05:03:10.934Z,14.78
2023-02-16T05:04:10.968Z,14.78
2023-02-16T05:05:10.933Z,14.77
2023-02-16T05:06:10.930Z,14.76
2023-02-16T05:07:10.893Z,14.76
2023-02-16T05:08:10.916Z,14.77
2023-02-16T05:09:10.878Z,14.76
2023-02-16T05:10:10.879Z,14.76
2023-02-16T05:11:10.900Z,14.75
2023-02-16T05:12:10.909Z,14.76
2023-02-16T05:13:10.875Z,14.76
2023-02-16T05:14:10.877Z,14.76
2023-02-16T05:15:10.874Z,14.77
2023-02-16T05:16:10.915Z,14.75
2023-02-16T05:17:10.832Z,14.76
2023-02-16T05:18:10.859Z,14.74
2023-02-16T05:19:10.846Z,14.78
2023-02-16T05:20:10.826Z,14.75
2023-02-16T05:21:10.834Z,14.74
2023-02-16T05:22:10.797Z,14.73
2023-02-16T05:23:10.798Z,14.74
2023-02-16T05:24:10.808Z,14.75
2023-02-16T05:25:10.793Z,14.73
2023-02-16T05:26:10.804Z,14.74
2023-02-16T05:27:10.770Z,14.75
2023-02-16T05:28:10.790Z,14.72
2023-02-16T05:29:10.784Z,14.74
2023-02-16T05:30:10.813Z,14.73
2023-02-16T05:31:10.824Z,14.73
2023-02-16T05:32:10.791Z,14.73
2023-02-16T05:33:10.753Z,14.73
2023-02-16T05:34:10.750Z,14.72
2023-02-16T05:35:10.719Z,14.74
2023-02-16T05:36:10.722Z,14.72
2023-02-16T05:37:10.703Z,14.73
2023-02-16T05:38:10.713Z,14.72
2023-02-16T05:39:10.717Z,14.72
2023-02-16T05:40:10.768Z,14.70
2023-02-16T05:41:10.821Z,14.71
2023-02-16T05:42:10.946Z,14.72
2023-02-16T05:43:11.022Z,14.73
2023-02-16T05:44:11.098Z,14.74
2023-02-16T05:45:11.206Z,14.72
2023-02-16T05:46:11.333Z,14.72
2023-02-16T05:47:11.407Z,14.71
2023-02-16T05:48:11.452Z,14.73
2023-02-16T05:49:11.490Z,14.74
2023-02-16T05:50:11.466Z,14.74
2023-02-16T05:51:11.473Z,14.74
2023-02-16T05:52:11.582Z,14.74
2023-02-16T05:53:11.519Z,14.74
2023-02-16T05:54:11.534Z,14.74
2023-02-16T05:55:11.595Z,14.75
2023-02-16T05:56:11.672Z,14.75
2023-02-16T05:57:11.764Z,14.76
2023-02-16T05:58:11.857Z,14.75
2023-02-16T05:59:11.853Z,14.75
2023-02-16T06:01:31.541Z,14.76
2023-02-16T06:02:31.550Z,14.77
2023-02-16T06:05:31.510Z,14.76
2023-02-16T06:06:31.497Z,14.75
2023-02-16T06:07:31.476Z,14.74
2023-02-16T06:08:31.491Z,14.76
2023-02-16T06:09:31.490Z,14.74
2023-02-16T06:10:31.468Z,14.76
2023-02-16T06:11:31.460Z,14.75
2023-02-16T06:12:31.471Z,14.75
2023-02-16T06:13:31.448Z,14.76
2023-02-16T06:14:31.415Z,14.75
2023-02-16T06:15:31.425Z,14.76
2023-02-16T06:16:31.440Z,14.75
2023-02-16T06:17:31.412Z,14.76
2023-02-16T06:18:31.414Z,14.75
2023-02-16T06:19:31.394Z,14.76
2023-02-16T06:20:31.400Z,14.76
2023-02-16T06:21:31.400Z,14.76
2023-02-16T06:22:31.394Z,14.75
2023-02-16T06:23:31.406Z,14.75
2023-02-16T06:24:31.395Z,14.75
2023-02-16T06:25:31.351Z,14.75
2023-02-16T06:26:31.367Z,14.75
2023-02-16T06:27:31.373Z,14.73
2023-02-16T06:28:31.353Z,14.75
2023-02-16T06:29:31.345Z,14.73
2023-02-16T06:30:31.345Z,14.74
2023-02-16T06:31:31.542Z,14.73
2023-02-16T06:32:31.442Z,14.75
2023-02-16T06:33:31.348Z,14.74
2023-02-16T06:34:31.332Z,14.73
2023-02-16T06:35:31.299Z,14.74
2023-02-16T06:36:31.295Z,14.74
2023-02-16T06:37:31.311Z,14.75
2023-02-16T06:38:31.275Z,14.73
2023-02-16T06:39:31.276Z,14.75
2023-02-16T06:40:31.242Z,14.73
2023-02-16T06:41:31.669Z,14.73
2023-02-16T06:42:31.268Z,14.74
2023-02-16T06:43:31.256Z,14.74
2023-02-16T06:44:31.273Z,14.73
2023-02-16T06:45:38.234Z,14.73
2023-02-16T06:53:31.195Z,14.73
2023-02-16T06:54:31.177Z,14.72
2023-02-16T06:55:31.155Z,14.73
2023-02-16T06:56:31.170Z,14.71
2023-02-16T06:57:31.179Z,14.71
2023-02-16T06:58:31.185Z,14.73
2023-02-16T06:59:31.154Z,14.72
2023-02-16T07:00:31.240Z,14.72
2023-02-16T07:01:31.131Z,14.71
2023-02-16T07:02:31.125Z,14.70
2023-02-16T07:03:31.231Z,14.72
2023-02-16T07:04:31.107Z,14.73
2023-02-16T07:05:31.105Z,14.71
2023-02-16T07:06:31.094Z,14.71
2023-02-16T07:07:31.065Z,14.72
2023-02-16T07:08:31.074Z,14.73
2023-02-16T07:09:31.080Z,14.72
2023-02-16T07:10:47.416Z,14.71
2023-02-16T07:11:32.088Z,14.71
2023-02-16T07:12:31.043Z,14.71
2023-02-16T07:13:31.054Z,14.70
2023-02-16T07:14:31.050Z,14.71
2023-02-16T07:15:31.030Z,14.70
2023-02-16T07:16:31.063Z,14.71
2023-02-16T07:17:31.032Z,14.69
2023-02-16T07:18:31.046Z,14.70
2023-02-16T07:19:31.011Z,14.69
2023-02-16T07:20:31.041Z,14.69
2023-02-16T07:21:31.151Z,14.68
2023-02-16T07:22:31.205Z,14.68
2023-02-16T07:23:31.229Z,14.68
2023-02-16T07:24:31.323Z,14.66
2023-02-16T07:25:31.387Z,14.66
2023-02-16T07:26:31.428Z,14.65
2023-02-16T07:27:31.516Z,14.65
2023-02-16T07:28:31.535Z,14.65
2023-02-16T07:29:31.623Z,14.65
2023-02-16T07:30:31.711Z,14.60
2023-02-16T07:31:31.824Z,14.53
2023-02-16T07:32:31.807Z,14.49
2023-02-16T07:33:31.858Z,14.40
2023-02-16T07:34:31.908Z,14.33
2023-02-16T07:35:31.925Z,14.30
2023-02-16T07:36:31.978Z,14.28
2023-02-16T07:37:32.025Z,14.23
2023-02-16T07:38:32.066Z,14.15
2023-02-16T07:39:32.079Z,13.99
2023-02-16T07:40:32.095Z,13.83
2023-02-16T07:41:32.075Z,13.73
2023-02-16T07:42:32.071Z,13.68
2023-02-16T07:43:32.128Z,13.62
2023-02-16T07:44:32.176Z,13.56
2023-02-16T07:45:32.275Z,13.48
2023-02-16T07:46:33.387Z,13.46
2023-02-16T07:47:32.406Z,13.48
2023-02-16T07:48:32.456Z,13.56
2023-02-16T07:49:32.469Z,13.65
2023-02-16T07:50:32.538Z,13.72
2023-02-16T07:51:32.524Z,13.78
2023-02-16T07:52:32.602Z,13.84
2023-02-16T07:53:32.537Z,13.89
2023-02-16T07:54:32.536Z,13.95
2023-02-16T07:55:32.581Z,13.99
2023-02-16T07:56:32.590Z,14.02
2023-02-16T07:57:32.595Z,14.05
2023-02-16T07:58:32.646Z,14.07
2023-02-16T07:59:32.692Z,14.08
2023-02-16T08:00:32.673Z,14.08
2023-02-16T08:01:32.696Z,14.10
2023-02-16T08:02:32.842Z,14.11
2023-02-16T08:03:32.691Z,14.10
2023-02-16T08:04:32.736Z,14.09
2023-02-16T08:05:32.756Z,14.12
2023-02-16T08:06:32.780Z,14.11
2023-02-16T08:07:32.738Z,14.10
2023-02-16T08:08:32.805Z,14.12
2023-02-16T08:09:32.773Z,14.14
2023-02-16T08:10:32.828Z,14.16
2023-02-16T08:11:32.840Z,14.15
2023-02-16T08:12:32.838Z,14.14
2023-02-16T08:13:32.843Z,14.15
2023-02-16T08:14:32.853Z,14.15
2023-02-16T08:15:32.913Z,14.14
2023-02-16T08:16:32.963Z,14.14
2023-02-16T08:17:32.905Z,14.16
2023-02-16T08:18:32.918Z,14.16
2023-02-16T08:19:32.954Z,14.19
2023-02-16T08:20:51.167Z,14.19
2023-02-16T08:21:33.945Z,14.21
2023-02-16T08:22:32.938Z,14.20
2023-02-16T08:23:32.925Z,14.20
2023-02-16T08:24:32.887Z,14.21
2023-02-16T08:25:32.924Z,14.23
2023-02-16T08:26:32.876Z,14.24
2023-02-16T08:27:32.871Z,14.29
2023-02-16T08:28:32.894Z,14.28
2023-02-16T08:29:32.893Z,14.31
2023-02-16T08:30:32.936Z,14.31
2023-02-16T08:31:32.953Z,14.32
2023-02-16T08:32:32.852Z,14.35
2023-02-16T08:33:32.850Z,14.35
2023-02-16T08:34:32.835Z,14.38
2023-02-16T08:35:32.835Z,14.38
2023-02-16T08:36:32.838Z,14.40
2023-02-16T08:37:32.914Z,14.42
2023-02-16T08:38:32.921Z,14.42
2023-02-16T08:39:32.972Z,14.43
2023-02-16T08:40:32.978Z,14.44
2023-02-16T08:41:32.991Z,14.45
2023-02-16T08:42:33.050Z,14.46
2023-02-16T08:43:33.100Z,14.46
2023-02-16T08:44:33.141Z,14.47
2023-02-16T08:45:33.200Z,14.48
2023-02-16T08:46:33.180Z,14.49
2023-02-16T08:47:33.241Z,14.49
2023-02-16T08:48:33.240Z,14.51
2023-02-16T08:49:33.260Z,14.51
2023-02-16T08:50:33.306Z,14.49
2023-02-16T08:51:33.324Z,14.52
2023-02-16T08:52:33.350Z,14.51
2023-02-16T08:53:33.405Z,14.50
2023-02-16T08:54:33.490Z,14.53
2023-02-16T08:55:33.445Z,14.53
2023-02-16T08:56:33.475Z,14.53
2023-02-16T08:57:33.483Z,14.55
2023-02-16T08:58:33.554Z,14.55
2023-02-16T08:59:33.564Z,14.54
2023-02-16T09:00:33.572Z,14.54
2023-02-16T09:01:33.668Z,14.55
2023-02-16T09:02:33.738Z,14.55
2023-02-16T09:03:33.662Z,14.55
2023-02-16T09:04:33.707Z,14.57
2023-02-16T09:05:33.744Z,14.57
2023-02-16T09:06:33.746Z,14.57
2023-02-16T09:07:33.831Z,14.57
2023-02-16T09:08:33.787Z,14.58
2023-02-16T09:09:33.851Z,14.56
2023-02-16T09:10:33.873Z,14.55
2023-02-16T09:11:33.887Z,14.57
2023-02-16T09:12:34.830Z,14.59
2023-02-16T09:13:34.016Z,14.57
2023-02-16T09:14:34.021Z,14.57
2023-02-16T09:15:34.033Z,14.59
2023-02-16T09:16:34.156Z,14.58
2023-02-16T09:17:34.092Z,14.57
2023-02-16T09:18:34.148Z,14.57
2023-02-16T09:19:34.234Z,14.56
2023-02-16T09:20:34.218Z,14.56
2023-02-16T09:21:34.256Z,14.57
2023-02-16T09:22:34.296Z,14.56
2023-02-16T09:23:34.294Z,14.56
2023-02-16T09:24:34.322Z,14.56
2023-02-16T09:25:34.355Z,14.54
2023-02-16T09:26:34.362Z,14.54
2023-02-16T09:27:34.409Z,14.53
2023-02-16T09:28:34.397Z,14.53
2023-02-16T09:29:34.419Z,14.53
2023-02-16T09:30:34.616Z,14.51
2023-02-16T09:31:34.552Z,14.51
2023-02-16T09:32:34.515Z,14.50
2023-02-16T09:33:34.504Z,14.48
2023-02-16T09:34:34.553Z,14.48
2023-02-16T09:35:34.567Z,14.48
2023-02-16T09:36:34.576Z,14.47
2023-02-16T09:37:34.561Z,14.46
2023-02-16T09:38:34.597Z,14.46
2023-02-16T09:39:34.668Z,14.46
2023-02-16T09:40:34.666Z,14.46
2023-02-16T09:41:34.620Z,14.45
2023-02-16T09:42:34.667Z,14.44
2023-02-16T09:43:34.769Z,14.45
2023-02-16T09:44:34.690Z,14.44
2023-02-16T09:45:34.697Z,14.44
2023-02-16T09:46:34.746Z,14.42
2023-02-16T09:47:34.709Z,14.44
2023-02-16T09:48:34.710Z,14.42
2023-02-16T09:49:34.721Z,14.41
2023-02-16T09:50:53.791Z,14.41
2023-02-16T09:51:35.750Z,14.40
2023-02-16T09:52:34.712Z,14.40
2023-02-16T09:53:34.720Z,14.40
2023-02-16T09:54:34.737Z,14.41
2023-02-16T09:55:34.717Z,14.42
2023-02-16T09:56:34.730Z,14.42
2023-02-16T09:57:34.712Z,14.40
2023-02-16T09:58:34.750Z,14.40
2023-02-16T09:59:34.704Z,14.41
2023-02-16T10:00:34.713Z,14.42
2023-02-16T10:01:34.765Z,14.42
2023-02-16T10:02:34.685Z,14.41
2023-02-16T10:03:34.657Z,14.42
2023-02-16T10:04:34.656Z,14.42
2023-02-16T10:05:34.669Z,14.42
2023-02-16T10:06:34.672Z,14.42
2023-02-16T10:07:34.646Z,14.44
2023-02-16T10:08:34.651Z,14.44
2023-02-16T10:09:34.618Z,14.45
2023-02-16T10:10:34.650Z,14.44
2023-02-16T10:11:34.634Z,14.46
2023-02-16T10:12:34.610Z,14.44
2023-02-16T10:13:34.662Z,14.46
2023-02-16T10:14:34.647Z,14.48
2023-02-16T10:15:34.635Z,14.47
2023-02-16T10:16:34.597Z,14.48
2023-02-16T10:17:34.570Z,14.46
2023-02-16T10:18:34.600Z,14.46
2023-02-16T10:19:34.544Z,14.48
2023-02-16T10:20:34.582Z,14.47
2023-02-16T10:21:34.552Z,14.47
2023-02-16T10:22:34.542Z,14.47
2023-02-16T10:23:34.545Z,14.49
2023-02-16T10:24:34.561Z,14.49
2023-02-16T10:25:34.528Z,14.49
2023-02-16T10:26:34.525Z,14.47
2023-02-16T10:27:34.520Z,14.48
2023-02-16T10:28:34.516Z,14.45
2023-02-16T10:29:34.479Z,14.48
2023-02-16T10:30:34.502Z,14.46
2023-02-16T10:31:34.503Z,14.48
2023-02-16T10:32:37.296Z,14.50
2023-02-16T10:33:34.460Z,14.48
2023-02-16T10:34:34.465Z,14.49
2023-02-16T10:35:34.482Z,14.50
2023-02-16T10:36:34.475Z,14.50
2023-02-16T10:37:34.466Z,14.51
2023-02-16T10:38:34.413Z,14.51
2023-02-16T10:39:34.427Z,14.50
2023-02-16T10:40:34.461Z,14.50
2023-02-16T10:41:34.413Z,14.50
2023-02-16T10:42:34.429Z,14.52
2023-02-16T10:43:34.419Z,14.52
2023-02-16T10:44:34.431Z,14.53
2023-02-16T10:45:34.435Z,14.50
2023-02-16T10:46:34.403Z,14.50
2023-02-16T10:47:34.373Z,14.51
2023-02-16T10:48:34.484Z,14.49
2023-02-16T10:49:34.394Z,14.49
2023-02-16T10:50:34.370Z,14.48
2023-02-16T10:51:34.384Z,14.50
2023-02-16T10:52:34.397Z,14.49
2023-02-16T10:53:34.349Z,14.50
2023-02-16T10:54:34.324Z,14.50
2023-02-16T10:55:34.367Z,14.48
2023-02-16T10:56:34.335Z,14.48
2023-02-16T10:57:34.327Z,14.50
2023-02-16T10:58:34.304Z,14.49
2023-02-16T10:59:34.337Z,14.49
2023-02-16T11:00:34.312Z,14.47
2023-02-16T11:01:34.323Z,14.47
2023-02-16T11:02:34.272Z,14.48
2023-02-16T11:03:34.269Z,14.49
2023-02-16T11:04:34.288Z,14.48
2023-02-16T11:05:34.265Z,14.48
2023-02-16T11:06:36.407Z,14.49
2023-02-16T11:07:34.297Z,14.48
2023-02-16T11:08:34.254Z,14.48
2023-02-16T11:09:34.223Z,14.48
2023-02-16T11:10:34.241Z,14.50
2023-02-16T11:11:34.238Z,14.50
2023-02-16T11:12:34.272Z,14.48
2023-02-16T11:13:34.226Z,14.47
2023-02-16T11:14:34.271Z,14.48
2023-02-16T11:15:34.199Z,14.49
2023-02-16T11:16:34.214Z,14.48
2023-02-16T11:17:34.172Z,14.50
2023-02-16T11:18:34.177Z,14.48
2023-02-16T11:19:34.272Z,14.49
2023-02-16T11:20:34.237Z,14.49
2023-02-16T11:21:34.241Z,14.50
2023-02-16T11:22:34.258Z,14.52
2023-02-16T11:23:34.221Z,14.50
2023-02-16T11:24:34.224Z,14.52
2023-02-16T11:25:34.265Z,14.53
2023-02-16T11:26:34.249Z,14.52
2023-02-16T11:27:34.258Z,14.51
2023-02-16T11:28:34.257Z,14.52
2023-02-16T11:29:34.245Z,14.51
2023-02-16T11:30:34.256Z,14.51
2023-02-16T11:31:34.398Z,14.51
2023-02-16T11:32:34.326Z,14.52
2023-02-16T11:33:34.323Z,14.53
2023-02-16T11:34:34.324Z,14.53
2023-02-16T11:35:34.338Z,14.54
2023-02-16T11:36:34.347Z,14.53
2023-02-16T11:37:34.335Z,14.54
2023-02-16T11:38:34.357Z,14.55
2023-02-16T11:39:34.364Z,14.54
2023-02-16T11:40:34.372Z,14.55
2023-02-16T11:41:34.371Z,14.54
2023-02-16T11:42:34.379Z,14.55
2023-02-16T11:43:34.383Z,14.55
2023-02-16T11:44:34.394Z,14.55
2023-02-16T11:45:34.418Z,14.55
2023-02-16T11:46:34.525Z,14.54
2023-02-16T11:47:34.412Z,14.55
2023-02-16T11:48:34.416Z,14.55
2023-02-16T11:49:34.430Z,14.53
2023-02-16T11:50:34.422Z,14.51
2023-02-16T11:51:34.438Z,14.53
2023-02-16T11:52:34.438Z,14.53
2023-02-16T11:53:34.448Z,14.53
2023-02-16T11:54:34.477Z,14.53
2023-02-16T11:55:34.463Z,14.52
2023-02-16T11:56:34.466Z,14.51
2023-02-16T11:57:34.513Z,14.53
2023-02-16T11:58:34.520Z,14.53
2023-02-16T11:59:34.531Z,14.54
2023-02-16T12:00:34.563Z,14.53
2023-02-16T12:01:34.563Z,14.52
2023-02-16T12:02:34.567Z,14.50
2023-02-16T12:03:34.650Z,14.53
2023-02-16T12:04:34.571Z,14.53
2023-02-16T12:05:34.599Z,14.52
2023-02-16T12:06:34.800Z,14.53
2023-02-16T12:07:34.607Z,14.52
2023-02-16T12:08:34.636Z,14.52
2023-02-16T12:09:34.632Z,14.52
2023-02-16T12:10:34.682Z,14.52
2023-02-16T12:11:34.695Z,14.52
2023-02-16T12:12:34.685Z,14.53
2023-02-16T12:13:34.683Z,14.53
2023-02-16T12:14:36.592Z,14.54
2023-02-16T12:15:34.736Z,14.52
2023-02-16T12:16:34.802Z,14.52
2023-02-16T12:17:34.739Z,14.52
2023-02-16T12:18:34.760Z,14.53
2023-02-16T12:19:34.836Z,14.54
2023-02-16T12:20:34.819Z,14.54
2023-02-16T12:21:34.862Z,14.53
2023-02-16T12:22:34.849Z,14.53
2023-02-16T12:23:34.827Z,14.55
2023-02-16T12:24:34.889Z,14.53
2023-02-16T12:25:34.880Z,14.53
2023-02-16T12:26:34.934Z,14.54
2023-02-16T12:27:34.929Z,14.55
2023-02-16T12:28:34.911Z,14.54
2023-02-16T12:29:34.937Z,14.55
2023-02-16T12:30:35.024Z,14.57
2023-02-16T12:31:35.062Z,14.55
2023-02-16T12:32:35.030Z,14.56
2023-02-16T12:33:35.020Z,14.57
2023-02-16T12:34:35.000Z,14.57
2023-02-16T12:35:35.042Z,14.56
2023-02-16T12:36:35.147Z,14.58
2023-02-16T12:37:35.089Z,14.58
2023-02-16T12:38:35.094Z,14.57
2023-02-16T12:39:35.114Z,14.58
2023-02-16T12:40:35.127Z,14.59
2023-02-16T12:41:35.172Z,14.59
2023-02-16T12:42:35.199Z,14.58
2023-02-16T12:43:35.168Z,14.57
2023-02-16T12:44:35.220Z,14.58
2023-02-16T12:45:35.296Z,14.61
2023-02-16T12:46:35.260Z,14.61
2023-02-16T12:47:35.279Z,14.60
2023-02-16T12:48:35.295Z,14.60
2023-02-16T12:49:35.914Z,14.60
2023-02-16T12:50:35.320Z,14.60
2023-02-16T12:51:35.360Z,14.61
2023-02-16T12:52:35.365Z,14.60
2023-02-16T12:53:35.368Z,14.61
2023-02-16T12:54:35.391Z,14.62
2023-02-16T12:55:35.426Z,14.61
2023-02-16T12:56:35.416Z,14.60
2023-02-16T12:57:35.448Z,14.61
2023-02-16T12:58:35.497Z,14.61
2023-02-16T12:59:35.477Z,14.61
2023-02-16T13:00:35.523Z,14.60
2023-02-16T13:01:35.530Z,14.59
2023-02-16T13:02:35.533Z,14.60
2023-02-16T13:03:35.585Z,14.59
2023-02-16T13:04:35.592Z,14.59
2023-02-16T13:05:35.596Z,14.60
2023-02-16T13:06:35.613Z,14.60
2023-02-16T13:07:35.637Z,14.60
2023-02-16T13:08:35.635Z,14.58
2023-02-16T13:09:35.662Z,14.59
2023-02-16T13:10:35.656Z,14.59
2023-02-16T13:11:35.781Z,14.60
2023-02-16T13:12:35.702Z,14.59
2023-02-16T13:13:35.709Z,14.58
2023-02-16T13:14:35.707Z,14.57
2023-02-16T13:15:35.736Z,14.58
2023-02-16T13:16:35.759Z,14.58
2023-02-16T13:17:35.768Z,14.59
2023-02-16T13:18:35.781Z,14.59
2023-02-16T13:19:35.754Z,14.57
2023-02-16T13:20:35.794Z,14.57
2023-02-16T13:21:49.062Z,14.55
2023-02-16T13:22:36.890Z,14.57
2023-02-16T13:23:35.781Z,14.55
2023-02-16T13:24:35.789Z,14.56
2023-02-16T13:25:35.920Z,14.56
2023-02-16T13:26:35.783Z,14.56
2023-02-16T13:27:35.792Z,14.56
2023-02-16T13:28:35.800Z,14.56
2023-02-16T13:29:35.800Z,14.56
2023-02-16T13:30:35.863Z,14.56
2023-02-16T13:31:35.837Z,14.55
2023-02-16T13:32:35.733Z,14.55
2023-02-16T13:33:35.757Z,14.55
2023-02-16T13:34:35.762Z,14.55
2023-02-16T13:35:35.722Z,14.56
2023-02-16T13:36:35.708Z,14.56
2023-02-16T13:37:35.723Z,14.55
2023-02-16T13:38:35.687Z,14.55
2023-02-16T13:39:35.685Z,14.54
2023-02-16T13:40:35.683Z,14.56
2023-02-16T13:41:35.659Z,14.56
2023-02-16T13:42:35.672Z,14.54
2023-02-16T13:43:35.652Z,14.56
2023-02-16T13:44:35.663Z,14.55
2023-02-16T13:45:35.631Z,14.55
2023-02-16T13:46:35.652Z,14.56
2023-02-16T13:47:35.679Z,14.55
2023-02-16T13:48:35.688Z,14.58
2023-02-16T13:49:35.711Z,14.58
2023-02-16T13:50:35.727Z,14.56
2023-02-16T13:51:35.741Z,14.56
2023-02-16T13:52:35.755Z,14.57
2023-02-16T13:53:35.789Z,14.57
2023-02-16T13:54:35.801Z,14.56
2023-02-16T13:55:35.817Z,14.58
2023-02-16T13:56:35.847Z,14.58
2023-02-16T13:57:35.844Z,14.58
2023-02-16T13:58:35.880Z,14.58
2023-02-16T13:59:35.885Z,14.58
2023-02-16T14:00:35.892Z,14.58
2023-02-16T14:01:35.976Z,14.58
2023-02-16T14:02:35.946Z,14.57
2023-02-16T14:03:35.962Z,14.59
2023-02-16T14:04:36.000Z,14.59
2023-02-16T14:05:36.032Z,14.59
2023-02-16T14:06:36.033Z,14.59
2023-02-16T14:07:36.070Z,14.58
2023-02-16T14:08:36.028Z,14.58
2023-02-16T14:09:36.068Z,14.58
2023-02-16T14:10:36.067Z,14.58
2023-02-16T14:11:36.122Z,14.58
2023-02-16T14:12:36.117Z,14.59
2023-02-16T14:13:36.153Z,14.59
2023-02-16T14:14:36.183Z,14.57
2023-02-16T14:15:36.227Z,14.59
2023-02-16T14:16:36.175Z,14.58
2023-02-16T14:17:36.187Z,14.59
2023-02-16T14:18:36.203Z,14.59
2023-02-16T14:19:36.197Z,14.57
2023-02-16T14:20:36.229Z,14.59
2023-02-16T14:21:36.222Z,14.57
2023-02-16T14:22:36.268Z,14.58
2023-02-16T14:23:36.272Z,14.60
2023-02-16T14:24:36.263Z,14.57
2023-02-16T14:25:36.323Z,14.58
2023-02-16T14:26:36.316Z,14.57
2023-02-16T14:27:36.370Z,14.58
2023-02-16T14:28:36.377Z,14.58
2023-02-16T14:29:36.383Z,14.58
2023-02-16T14:30:36.452Z,14.59
2023-02-16T14:31:36.523Z,14.60
2023-02-16T14:32:36.517Z,14.58
2023-02-16T14:33:36.506Z,14.60
2023-02-16T14:34:36.510Z,14.59
2023-02-16T14:35:36.537Z,14.58
2023-02-16T14:36:36.550Z,14.59
2023-02-16T14:37:36.600Z,14.59
2023-02-16T14:38:36.644Z,14.60
2023-02-16T14:39:58.412Z,14.59
2023-02-16T14:40:37.651Z,14.59
2023-02-16T14:41:36.676Z,14.58
2023-02-16T14:42:36.643Z,14.58
2023-02-16T14:43:36.657Z,14.59
2023-02-16T14:44:36.596Z,14.58
2023-02-16T14:45:36.599Z,14.57
2023-02-16T14:46:36.699Z,14.56
2023-02-16T14:47:36.584Z,14.58
2023-02-16T14:48:36.590Z,14.59
2023-02-16T14:49:36.614Z,14.58
2023-02-16T14:50:36.582Z,14.59
2023-02-16T14:51:36.567Z,14.61
2023-02-16T14:52:36.617Z,14.58
2023-02-16T14:53:36.545Z,14.59
2023-02-16T14:54:36.648Z,14.59
2023-02-16T14:55:36.551Z,14.58
2023-02-16T14:56:36.558Z,14.59
2023-02-16T14:57:36.573Z,14.58
2023-02-16T14:58:36.598Z,14.57
2023-02-16T14:59:36.653Z,14.58
2023-02-16T15:00:36.654Z,14.58
2023-02-16T15:01:36.720Z,14.59
2023-02-16T15:02:36.731Z,14.59
2023-02-16T15:03:36.762Z,14.60
2023-02-16T15:04:36.787Z,14.59
2023-02-16T15:05:36.805Z,14.60
2023-02-16T15:06:36.837Z,14.61
2023-02-16T15:07:37.006Z,14.60
2023-02-16T15:08:36.921Z,14.61
2023-02-16T15:09:36.941Z,14.58
2023-02-16T15:10:36.990Z,14.59
2023-02-16T15:11:37.041Z,14.61
2023-02-16T15:12:37.046Z,14.60
2023-02-16T15:13:37.088Z,14.62
2023-02-16T15:14:37.107Z,14.61
2023-02-16T15:15:37.167Z,14.61
2023-02-16T15:16:37.170Z,14.61
2023-02-16T15:17:37.215Z,14.61
2023-02-16T15:18:37.228Z,14.61
2023-02-16T15:19:37.279Z,14.61
2023-02-16T15:20:37.300Z,14.61
2023-02-16T15:21:37.349Z,14.62
2023-02-16T15:22:37.371Z,14.61
2023-02-16T15:23:37.387Z,14.60
2023-02-16T15:24:37.460Z,14.62
2023-02-16T15:25:37.491Z,14.61
2023-02-16T15:26:37.508Z,14.60
2023-02-16T15:27:37.549Z,14.60
2023-02-16T15:28:37.581Z,14.59
2023-02-16T15:29:37.607Z,14.60
2023-02-16T15:30:37.633Z,14.60
2023-02-16T15:31:37.727Z,14.60
2023-02-16T15:32:37.724Z,14.59
2023-02-16T15:33:37.761Z,14.60
2023-02-16T15:34:37.921Z,14.59
2023-02-16T15:35:37.824Z,14.58
2023-02-16T15:36:37.879Z,14.60
2023-02-16T15:37:38.051Z,14.60